createdAt,value
2023-05-04T00:01:46.062Z,1.00
2023-05-04T00:06:48.819Z,0.00
2023-05-04T00:11:51.594Z,0.00
2023-05-04T00:16:55.754Z,0.80
2023-05-04T00:21:58.525Z,1.00
2023-05-04T00:27:02.242Z,1.00
2023-05-04T00:32:06.997Z,1.00
2023-05-04T00:37:09.795Z,1.00
2023-05-04T00:42:12.670Z,0.80
2023-05-04T00:47:19.498Z,0.00
2023-05-04T00:52:22.557Z,1.00
2023-05-04T00:57:25.501Z,1.00
2023-05-04T01:02:29.892Z,0.00
2023-05-04T01:07:36.181Z,0.00
2023-05-04T01:12:40.218Z,0.00
2023-05-04T01:17:44.427Z,0.40
2023-05-04T01:22:48.533Z,0.80
2023-05-04T01:27:53.237Z,0.00
2023-05-04T01:32:56.180Z,1.00
2023-05-04T01:38:00.370Z,1.00
2023-05-04T01:43:03.165Z,0.20
2023-05-04T01:48:06.842Z,1.00
2023-05-04T01:53:11.092Z,0.80
2023-05-04T01:58:13.939Z,0.00
2023-05-04T02:03:16.785Z,1.00
2023-05-04T02:08:21.166Z,0.00
2023-05-04T02:13:24.103Z,0.00
2023-05-04T02:18:26.879Z,0.00
2023-05-04T02:23:30.973Z,1.00
2023-05-04T02:28:34.800Z,0.60
2023-05-04T02:33:38.007Z,0.00
2023-05-04T02:38:42.169Z,0.00
2023-05-04T02:43:46.885Z,0.40
2023-05-04T02:48:49.649Z,0.00
2023-05-04T02:53:54.131Z,1.00
2023-05-04T02:58:56.928Z,0.60
2023-05-04T03:03:59.718Z,0.00
2023-05-04T03:09:04.434Z,1.00
2023-05-04T03:14:07.785Z,1.00
2023-05-04T03:19:10.567Z,1.00
2023-05-04T03:24:15.568Z,0.60
2023-05-04T03:29:18.413Z,0.40
2023-05-04T03:34:21.831Z,0.00
2023-05-04T03:39:29.997Z,1.00
2023-05-04T03:44:32.886Z,0.00
2023-05-04T03:49:35.850Z,0.80
2023-05-04T03:54:40.057Z,1.00
2023-05-04T03:59:42.972Z,0.80
2023-05-04T04:04:46.088Z,0.80
2023-05-04T04:09:50.411Z,0.60
2023-05-04T04:14:53.396Z,1.00
2023-05-04T04:19:56.157Z,0.40
2023-05-04T04:25:00.329Z,0.00
2023-05-04T04:30:04.435Z,0.00
2023-05-04T04:35:08.540Z,0.40
2023-05-04T04:40:13.574Z,1.00
2023-05-04T04:45:16.441Z,1.00
2023-05-04T04:50:19.287Z,0.20
2023-05-04T04:55:25.718Z,0.00
2023-05-04T05:00:28.658Z,0.00
2023-05-04T05:05:31.896Z,0.80
2023-05-04T05:10:36.220Z,0.40
2023-05-04T05:15:39.032Z,0.80
2023-05-04T05:20:41.890Z,1.00
2023-05-04T05:25:46.086Z,0.00
2023-05-04T05:30:49.627Z,0.00
2023-05-04T05:35:52.560Z,0.00
2023-05-04T05:40:57.152Z,1.00
2023-05-04T05:46:00.032Z,0.60
2023-05-04T05:51:02.968Z,1.00
2023-05-04T05:56:07.915Z,0.20
2023-05-04T06:01:10.824Z,0.80
2023-05-04T06:06:13.636Z,0.60
2023-05-04T06:11:17.913Z,1.00
2023-05-04T06:16:21.106Z,0.80
2023-05-04T06:21:23.904Z,0.00
2023-05-04T06:26:28.407Z,0.00
2023-05-04T06:31:31.366Z,0.60
2023-05-04T06:36:34.172Z,0.40
2023-05-04T06:41:38.371Z,0.00
2023-05-04T06:46:41.610Z,1.00
2023-05-04T06:51:44.496Z,0.00
2023-05-04T06:56:48.878Z,10.20
2023-05-04T07:01:51.732Z,11.00
2023-05-04T07:06:55.006Z,11.00
2023-05-04T07:12:12.420Z,8.80
2023-05-04T07:17:22.053Z,11.40
2023-05-04T07:22:25.122Z,9.80
2023-05-04T07:27:29.377Z,8.00
2023-05-04T07:32:32.508Z,10.80
2023-05-04T07:37:35.467Z,7.00
2023-05-04T07:42:39.614Z,8.80
2023-05-04T07:47:42.578Z,8.00
2023-05-04T07:52:47.719Z,8.00
2023-05-04T07:57:52.193Z,8.00
2023-05-04T08:02:55.144Z,8.60
2023-05-04T08:07:58.154Z,9.00
2023-05-04T08:13:02.379Z,9.00
2023-05-04T08:18:06.191Z,10.20
2023-05-04T08:23:09.087Z,11.20
2023-05-04T08:28:13.341Z,10.60
2023-05-04T08:33:16.199Z,13.00
2023-05-04T08:38:18.959Z,10.80
2023-05-04T08:43:23.950Z,9.00
2023-05-04T08:48:27.636Z,10.20
2023-05-04T08:53:30.550Z,11.80
2023-05-04T08:58:37.919Z,6.60
2023-05-04T09:03:41.072Z,11.40
2023-05-04T09:08:44.053Z,8.00
2023-05-04T09:13:48.234Z,8.80
2023-05-04T09:18:51.192Z,7.00
2023-05-04T09:23:54.061Z,6.80
2023-05-04T09:28:58.462Z,8.00
2023-05-04T09:34:09.949Z,8.40
2023-05-04T09:39:13.097Z,8.60
2023-05-04T09:44:21.329Z,9.80
2023-05-04T09:49:33.614Z,11.20
2023-05-04T09:54:38.765Z,10.80
2023-05-04T09:59:43.358Z,9.00
2023-05-04T10:04:46.187Z,8.80
2023-05-04T10:09:49.730Z,9.00
2023-05-04T10:14:54.018Z,8.00
2023-05-04T10:20:07.252Z,8.20
2023-05-04T10:25:37.732Z,8.40
2023-05-04T10:30:42.098Z,6.80
2023-05-04T10:35:53.013Z,8.00
2023-05-04T10:40:56.354Z,7.00
2023-05-04T10:46:02.409Z,7.80
2023-05-04T10:51:05.929Z,7.40
2023-05-04T10:56:09.200Z,8.40
2023-05-04T11:01:14.090Z,8.00
2023-05-04T11:06:23.246Z,9.20
2023-05-04T11:11:27.304Z,9.00
2023-05-04T11:16:31.536Z,8.80
2023-05-04T11:21:34.385Z,8.20
2023-05-04T11:26:46.552Z,9.00
2023-05-04T11:31:58.316Z,7.80
2023-05-04T11:37:01.248Z,8.00
2023-05-04T11:42:07.307Z,7.60
2023-05-04T11:47:11.995Z,8.60
2023-05-04T11:52:14.841Z,8.00
2023-05-04T11:57:23.108Z,8.00
2023-05-04T12:02:27.362Z,7.60
2023-05-04T12:07:30.617Z,7.80
2023-05-04T12:12:36.281Z,5.60
2023-05-04T12:17:43.799Z,6.00
2023-05-04T12:22:46.650Z,7.80
2023-05-04T12:27:49.557Z,5.60
2023-05-04T12:32:54.263Z,111.25
2023-05-04T12:37:57.031Z,140.75
2023-05-04T12:42:59.960Z,167.00
2023-05-04T12:48:04.654Z,171.00
2023-05-04T12:53:08.219Z,181.75
2023-05-04T12:58:11.271Z,186.75
2023-05-04T13:03:17.917Z,174.60
2023-05-04T13:08:21.170Z,148.00
2023-05-04T13:13:28.396Z,147.33
2023-05-04T13:18:32.752Z,127.25
2023-05-04T13:23:36.276Z,115.25
2023-05-04T13:28:39.564Z,102.75
2023-05-04T13:33:45.291Z,102.75
2023-05-04T13:38:48.114Z,90.67
2023-05-04T13:43:50.974Z,93.00
2023-05-04T13:48:56.998Z,91.33
2023-05-04T13:54:02.452Z,84.00
2023-05-04T13:59:05.910Z,80.50
2023-05-04T14:04:10.161Z,79.33
2023-05-04T14:09:13.520Z,73.75
2023-05-04T14:14:17.059Z,72.50
2023-05-04T14:19:21.370Z,70.00
2023-05-04T14:24:25.389Z,69.50
2023-05-04T14:29:28.404Z,61.50
2023-05-04T14:34:32.704Z,65.00
2023-05-04T14:39:35.678Z,61.00
2023-05-04T14:44:38.561Z,61.75
2023-05-04T14:49:43.025Z,59.25
2023-05-04T14:54:46.072Z,53.00
2023-05-04T14:59:48.852Z,58.75
2023-05-04T15:04:53.003Z,52.00
2023-05-04T15:09:55.751Z,50.50
2023-05-04T15:14:58.754Z,47.50
2023-05-04T15:20:03.342Z,48.50
2023-05-04T15:25:06.780Z,46.75
2023-05-04T15:30:11.401Z,44.50
2023-05-04T15:35:15.721Z,43.50
2023-05-04T15:40:18.541Z,44.00
2023-05-04T15:45:22.176Z,42.25
2023-05-04T15:50:26.328Z,42.00
2023-05-04T15:55:29.432Z,42.00
2023-05-04T16:00:32.180Z,41.00
2023-05-04T16:05:36.603Z,40.00
2023-05-04T16:10:39.450Z,39.00
2023-05-04T16:15:42.285Z,39.00
2023-05-04T16:20:46.652Z,38.75
2023-05-04T16:25:49.560Z,38.00
2023-05-04T16:30:52.576Z,35.00
2023-05-04T16:35:57.603Z,37.00
2023-05-04T16:41:00.773Z,35.75
2023-05-04T16:46:04.887Z,34.50
2023-05-04T16:51:09.969Z,33.25
2023-05-04T16:56:18.685Z,33.00
2023-05-04T17:01:22.125Z,32.00
2023-05-04T17:06:26.774Z,31.00
2023-05-04T17:11:29.527Z,32.00
2023-05-04T17:16:32.516Z,30.67
2023-05-04T17:21:36.924Z,31.67
2023-05-04T17:26:39.812Z,28.67
2023-05-04T17:31:42.754Z,29.67
2023-05-04T17:36:47.106Z,28.33
2023-05-04T17:41:50.014Z,29.00
2023-05-04T17:46:52.833Z,27.00
2023-05-04T17:51:57.280Z,27.00
2023-05-04T17:57:00.262Z,28.00
2023-05-04T18:02:04.229Z,28.00
2023-05-04T18:07:08.548Z,25.00
2023-05-04T18:12:11.365Z,25.33
2023-05-04T18:17:14.257Z,24.75
2023-05-04T18:22:18.606Z,25.00
2023-05-04T18:27:21.698Z,23.75
2023-05-04T18:32:24.761Z,23.75
2023-05-04T18:37:30.500Z,20.50
2023-05-04T18:42:33.412Z,23.00
2023-05-04T18:47:37.655Z,21.25
2023-05-04T18:52:41.967Z,23.25
2023-05-04T18:57:45.023Z,24.50
2023-05-04T19:02:47.942Z,23.00
2023-05-04T19:07:52.362Z,21.75
2023-05-04T19:12:55.271Z,22.00
2023-05-04T19:17:58.269Z,19.25
2023-05-04T19:23:02.745Z,20.25
2023-05-04T19:28:08.778Z,19.00
2023-05-04T19:33:11.962Z,19.75
2023-05-04T19:38:16.196Z,19.75
2023-05-04T19:43:19.071Z,18.50
2023-05-04T19:48:22.003Z,20.00
2023-05-04T19:53:26.111Z,19.25
2023-05-04T19:58:30.926Z,18.40
2023-05-04T20:03:33.728Z,19.00
2023-05-04T20:08:37.882Z,18.00
2023-05-04T20:13:40.642Z,18.00
2023-05-04T20:18:43.518Z,17.60
2023-05-04T20:23:47.821Z,17.25
2023-05-04T20:28:50.972Z,18.00
2023-05-04T20:33:53.923Z,16.25
2023-05-04T20:38:58.236Z,16.00
2023-05-04T20:44:01.288Z,16.40
2023-05-04T20:49:04.138Z,16.00
2023-05-04T20:54:08.991Z,15.40
2023-05-04T20:59:11.777Z,15.40
2023-05-04T21:04:14.919Z,15.25
2023-05-04T21:09:19.065Z,14.80
2023-05-04T21:14:21.819Z,16.00
2023-05-04T21:19:24.677Z,15.60
2023-05-04T21:24:29.944Z,15.20
2023-05-04T21:29:32.804Z,16.00
2023-05-04T21:34:35.560Z,15.00
2023-05-04T21:39:39.674Z,14.00
2023-05-04T21:44:42.807Z,14.80
2023-05-04T21:49:45.572Z,14.80
2023-05-04T21:54:49.703Z,15.00
2023-05-04T21:59:52.593Z,12.20
2023-05-04T22:04:55.466Z,13.00
2023-05-04T22:09:59.584Z,14.00
2023-05-04T22:15:02.419Z,13.80
2023-05-04T22:20:06.184Z,11.60
2023-05-04T22:25:10.943Z,12.20
2023-05-04T22:30:14.689Z,14.40
2023-05-04T22:35:17.770Z,12.40
2023-05-04T22:40:22.515Z,13.40
2023-05-04T22:45:25.344Z,11.00
2023-05-04T22:50:28.387Z,11.00
2023-05-04T22:55:32.557Z,11.20
2023-05-04T23:00:35.422Z,13.00
2023-05-04T23:05:38.373Z,11.00
2023-05-04T23:10:46.375Z,11.00
2023-05-04T23:15:49.224Z,10.40
2023-05-04T23:20:52.085Z,11.20
2023-05-04T23:25:56.186Z,11.00
2023-05-04T23:30:59.028Z,11.00
2023-05-04T23:36:01.873Z,11.00
2023-05-04T23:41:06.101Z,10.00
2023-05-04T23:46:09.514Z,10.40
2023-05-04T23:51:12.289Z,10.00
2023-05-04T23:56:17.371Z,12.20
